createdAt,value
2017-07-14T00:00:14.700Z,0
2017-07-14T00:00:55.598Z,0
2017-07-14T00:01:36.484Z,0
2017-07-14T00:02:17.368Z,0
2017-07-14T00:02:58.273Z,0
2017-07-14T00:03:39.161Z,0
2017-07-14T00:04:20.022Z,0
2017-07-14T00:05:00.910Z,0
2017-07-14T00:05:41.791Z,0
2017-07-14T00:06:22.678Z,0
2017-07-14T00:07:03.559Z,0
2017-07-14T00:07:44.445Z,0
2017-07-14T00:08:25.335Z,0
2017-07-14T00:09:06.220Z,0
2017-07-14T00:09:47.115Z,0
2017-07-14T00:10:28.002Z,0
2017-07-14T00:11:08.908Z,0
2017-07-14T00:11:49.800Z,0
2017-07-14T00:12:30.710Z,0
2017-07-14T00:13:11.592Z,0
2017-07-14T00:13:52.474Z,0
2017-07-14T00:14:33.364Z,0
2017-07-14T00:15:14.267Z,0
2017-07-14T00:15:55.165Z,0
2017-07-14T00:16:36.057Z,0
2017-07-14T00:17:16.948Z,0
2017-07-14T00:17:57.839Z,0
2017-07-14T00:18:38.745Z,0
2017-07-14T00:19:19.641Z,0
2017-07-14T00:20:00.535Z,0
2017-07-14T00:20:41.450Z,0
2017-07-14T00:21:22.354Z,0
2017-07-14T00:22:03.246Z,0
2017-07-14T00:22:44.134Z,0
2017-07-14T00:23:25.031Z,0
2017-07-14T00:24:05.912Z,0
2017-07-14T00:24:46.814Z,0
2017-07-14T00:25:27.731Z,0
2017-07-14T00:26:08.617Z,0
2017-07-14T00:26:49.506Z,0
2017-07-14T00:27:30.388Z,0
2017-07-14T00:28:11.278Z,0
2017-07-14T00:28:52.157Z,0
2017-07-14T00:29:33.057Z,0
2017-07-14T00:30:13.939Z,0
2017-07-14T00:30:54.828Z,0
2017-07-14T00:31:35.715Z,0
2017-07-14T00:32:16.603Z,0
2017-07-14T00:32:57.481Z,0
2017-07-14T00:33:38.390Z,0
2017-07-14T00:34:19.281Z,0
2017-07-14T00:35:00.170Z,0
2017-07-14T00:35:41.049Z,0
2017-07-14T00:36:21.946Z,0
2017-07-14T00:37:02.841Z,0
2017-07-14T00:37:43.723Z,0
2017-07-14T00:38:24.615Z,0
2017-07-14T00:39:05.510Z,0
2017-07-14T00:39:46.396Z,0
2017-07-14T00:40:27.325Z,0
2017-07-14T00:41:08.201Z,0
2017-07-14T00:41:49.088Z,0
2017-07-14T00:42:29.978Z,0
2017-07-14T00:43:10.862Z,0
2017-07-14T00:43:51.753Z,0
2017-07-14T00:44:32.650Z,0
2017-07-14T00:45:13.535Z,0
2017-07-14T00:45:54.466Z,0
2017-07-14T00:46:35.324Z,0
2017-07-14T00:47:16.202Z,0
2017-07-14T00:47:57.090Z,0
2017-07-14T00:48:37.974Z,0
2017-07-14T00:49:18.887Z,0
2017-07-14T00:49:59.771Z,0
2017-07-14T00:50:40.651Z,0
2017-07-14T00:51:21.538Z,0
2017-07-14T00:52:02.446Z,0
2017-07-14T00:52:43.334Z,0
2017-07-14T00:53:24.231Z,0
2017-07-14T00:54:05.102Z,0
2017-07-14T00:54:46.015Z,0
2017-07-14T00:55:26.903Z,0
2017-07-14T00:56:07.798Z,0
2017-07-14T00:56:48.681Z,0
2017-07-14T00:57:29.571Z,0
2017-07-14T00:58:10.446Z,0
2017-07-14T00:58:51.374Z,0
2017-07-14T00:59:32.259Z,0
2017-07-14T01:00:13.176Z,0
2017-07-14T01:00:54.075Z,0
2017-07-14T01:01:34.963Z,0
2017-07-14T01:02:15.860Z,0
2017-07-14T01:02:56.753Z,0
2017-07-14T01:03:37.652Z,0
2017-07-14T01:04:18.562Z,0
2017-07-14T01:04:59.456Z,0
2017-07-14T01:05:40.341Z,0
2017-07-14T01:06:21.245Z,0
2017-07-14T01:07:02.132Z,0
2017-07-14T01:07:43.021Z,0
2017-07-14T01:08:23.908Z,0
2017-07-14T01:09:04.792Z,0
2017-07-14T01:09:45.701Z,0
2017-07-14T01:10:26.598Z,0
2017-07-14T01:11:07.492Z,0
2017-07-14T01:11:48.400Z,0
2017-07-14T01:12:29.285Z,0
2017-07-14T01:13:10.171Z,0
2017-07-14T01:13:51.057Z,0
2017-07-14T01:14:31.951Z,0
2017-07-14T01:15:12.893Z,0
2017-07-14T01:15:53.782Z,0
2017-07-14T01:16:34.670Z,0
2017-07-14T01:17:15.556Z,0
2017-07-14T01:19:34.859Z,0
2017-07-14T01:20:15.745Z,0
2017-07-14T01:20:56.619Z,0
2017-07-14T01:21:37.506Z,0
2017-07-14T01:22:18.389Z,0
2017-07-14T01:22:59.283Z,0
2017-07-14T01:23:40.176Z,0
2017-07-14T01:24:21.064Z,0
2017-07-14T01:25:01.976Z,0
2017-07-14T01:25:42.849Z,0
2017-07-14T01:26:23.741Z,0
2017-07-14T01:27:04.622Z,0
2017-07-14T01:27:45.526Z,0
2017-07-14T01:28:26.411Z,0
2017-07-14T01:29:07.385Z,0
2017-07-14T01:29:48.263Z,0
2017-07-14T01:30:29.156Z,0
2017-07-14T01:31:10.031Z,0
2017-07-14T01:31:50.918Z,0
2017-07-14T01:32:31.794Z,0
2017-07-14T01:33:12.697Z,0
2017-07-14T01:33:53.606Z,0
2017-07-14T01:34:34.498Z,0
2017-07-14T01:35:15.377Z,0
2017-07-14T01:35:56.285Z,0
2017-07-14T01:36:37.176Z,0
2017-07-14T01:37:18.059Z,0
2017-07-14T01:37:58.934Z,0
2017-07-14T01:38:39.831Z,0
2017-07-14T01:39:20.750Z,0
2017-07-14T01:40:01.606Z,0
2017-07-14T01:40:42.490Z,0
2017-07-14T01:41:23.408Z,0
2017-07-14T01:42:04.273Z,0
2017-07-14T01:42:45.163Z,0
2017-07-14T01:43:26.069Z,0
2017-07-14T01:44:06.955Z,0
2017-07-14T01:44:47.842Z,0
2017-07-14T01:45:28.738Z,0
2017-07-14T01:46:09.618Z,0
2017-07-14T01:46:50.497Z,0
2017-07-14T01:47:31.403Z,0
2017-07-14T01:48:12.294Z,0
2017-07-14T01:48:53.172Z,0
2017-07-14T01:49:34.052Z,0
2017-07-14T01:50:14.935Z,0
2017-07-14T01:50:55.830Z,0
2017-07-14T01:51:36.723Z,0
2017-07-14T01:52:17.602Z,0
2017-07-14T01:52:58.491Z,0
2017-07-14T01:53:39.370Z,0
2017-07-14T01:54:20.262Z,0
2017-07-14T01:55:01.140Z,0
2017-07-14T01:55:42.043Z,0
2017-07-14T01:56:22.912Z,0
2017-07-14T01:57:03.798Z,0
2017-07-14T01:57:44.687Z,0
2017-07-14T01:58:25.582Z,0
2017-07-14T01:59:06.467Z,0
2017-07-14T01:59:47.355Z,0
2017-07-14T02:00:28.244Z,0
2017-07-14T02:01:09.129Z,0
2017-07-14T02:01:50.030Z,0
2017-07-14T02:02:30.925Z,0
2017-07-14T02:03:11.795Z,0
2017-07-14T02:03:52.689Z,0
2017-07-14T02:04:33.566Z,0
2017-07-14T02:05:14.455Z,0
2017-07-14T02:05:55.356Z,0
2017-07-14T02:06:36.237Z,0
2017-07-14T02:07:17.124Z,0
2017-07-14T02:07:58.011Z,0
2017-07-14T02:08:38.891Z,0
2017-07-14T02:09:19.779Z,0
2017-07-14T02:10:00.673Z,0
2017-07-14T02:10:41.564Z,0
2017-07-14T02:11:22.465Z,0
2017-07-14T02:12:03.351Z,0
2017-07-14T02:12:44.243Z,0
2017-07-14T02:13:25.139Z,0
2017-07-14T02:14:06.011Z,0
2017-07-14T02:14:46.902Z,0
2017-07-14T02:15:27.802Z,0
2017-07-14T02:16:08.713Z,0
2017-07-14T02:16:49.588Z,0
2017-07-14T02:17:30.476Z,0
2017-07-14T02:18:11.376Z,0
2017-07-14T02:18:52.265Z,0
2017-07-14T02:19:33.148Z,0
2017-07-14T02:20:14.039Z,0
2017-07-14T02:20:54.920Z,0
2017-07-14T02:21:35.802Z,0
2017-07-14T02:22:16.694Z,0
2017-07-14T02:22:57.650Z,0
2017-07-14T02:23:38.530Z,0
2017-07-14T02:24:19.412Z,0
2017-07-14T02:25:00.303Z,0
2017-07-14T02:25:41.203Z,0
2017-07-14T02:26:22.087Z,0
2017-07-14T02:27:02.997Z,0
2017-07-14T02:27:43.902Z,0
2017-07-14T02:28:24.791Z,0
2017-07-14T02:29:05.692Z,0
2017-07-14T02:29:46.572Z,0
2017-07-14T02:30:27.488Z,0
2017-07-14T02:31:08.422Z,0
2017-07-14T02:31:49.314Z,0
2017-07-14T02:32:30.199Z,0
2017-07-14T02:33:11.100Z,0
2017-07-14T02:33:52.011Z,0
2017-07-14T02:34:32.890Z,0
2017-07-14T02:35:13.784Z,0
2017-07-14T02:35:54.678Z,0
2017-07-14T02:36:35.565Z,0
2017-07-14T02:37:16.454Z,0
2017-07-14T02:37:57.354Z,0
2017-07-14T02:38:38.237Z,0
2017-07-14T02:39:19.122Z,0
2017-07-14T02:40:00.007Z,0
2017-07-14T02:40:40.893Z,0
2017-07-14T02:41:21.777Z,0
2017-07-14T02:42:02.664Z,0
2017-07-14T02:42:43.560Z,0
2017-07-14T02:43:24.448Z,0
2017-07-14T02:44:05.337Z,0
2017-07-14T02:44:46.224Z,0
2017-07-14T02:45:27.120Z,0
2017-07-14T02:46:07.995Z,0
2017-07-14T02:46:48.869Z,0
2017-07-14T02:47:29.754Z,0
2017-07-14T02:48:10.626Z,0
2017-07-14T02:48:51.506Z,0
2017-07-14T02:49:32.417Z,0
2017-07-14T02:50:13.284Z,0
2017-07-14T02:50:54.161Z,0
2017-07-14T02:51:35.043Z,0
2017-07-14T02:52:15.932Z,0
2017-07-14T02:52:56.823Z,0
2017-07-14T02:53:37.704Z,0
2017-07-14T02:54:18.590Z,0
2017-07-14T02:54:59.482Z,0
2017-07-14T02:55:40.372Z,0
2017-07-14T02:56:21.251Z,0
2017-07-14T02:57:02.141Z,0
2017-07-14T02:57:43.039Z,0
2017-07-14T02:58:23.937Z,0
2017-07-14T02:59:04.815Z,0
2017-07-14T02:59:45.704Z,0
2017-07-14T03:00:26.634Z,0
2017-07-14T03:01:07.526Z,0
2017-07-14T03:01:48.408Z,0
2017-07-14T03:02:29.340Z,0
2017-07-14T03:03:10.257Z,0
2017-07-14T03:03:51.117Z,5
2017-07-14T03:04:32.010Z,5
2017-07-14T03:05:12.900Z,5
2017-07-14T03:05:53.781Z,5
2017-07-14T03:06:34.681Z,5
2017-07-14T03:07:15.583Z,5
2017-07-14T03:07:56.476Z,5
2017-07-14T03:08:37.367Z,5
2017-07-14T03:09:18.261Z,5
2017-07-14T03:09:59.153Z,5
2017-07-14T03:10:40.045Z,5
2017-07-14T03:11:20.931Z,5
2017-07-14T03:12:01.818Z,5
2017-07-14T03:12:42.713Z,10
2017-07-14T03:13:23.601Z,10
2017-07-14T03:14:04.483Z,10
2017-07-14T03:14:45.371Z,10
2017-07-14T03:15:26.264Z,10
2017-07-14T03:16:07.148Z,10
2017-07-14T03:16:48.030Z,10
2017-07-14T03:17:28.931Z,10
2017-07-14T03:18:09.803Z,15
2017-07-14T03:18:50.715Z,15
2017-07-14T03:19:31.613Z,15
2017-07-14T03:20:12.499Z,15
2017-07-14T03:20:53.396Z,15
2017-07-14T03:21:34.284Z,15
2017-07-14T03:22:15.173Z,15
2017-07-14T03:22:56.063Z,15
2017-07-14T03:23:36.977Z,15
2017-07-14T03:24:17.838Z,15
2017-07-14T03:24:58.757Z,15
2017-07-14T03:25:39.646Z,15
2017-07-14T03:26:20.520Z,15
2017-07-14T03:27:01.431Z,15
2017-07-14T03:27:42.325Z,15
2017-07-14T03:28:23.209Z,20
2017-07-14T03:29:04.099Z,20
2017-07-14T03:29:44.989Z,20
2017-07-14T03:30:25.874Z,20
2017-07-14T03:31:06.761Z,20
2017-07-14T03:31:47.640Z,20
2017-07-14T03:32:28.526Z,20
2017-07-14T03:33:09.408Z,20
2017-07-14T03:33:50.275Z,20
2017-07-14T03:34:31.163Z,20
2017-07-14T03:35:12.052Z,20
2017-07-14T03:35:52.938Z,20
2017-07-14T03:36:33.862Z,25
2017-07-14T03:37:14.774Z,25
2017-07-14T03:37:55.661Z,25
2017-07-14T03:38:36.562Z,25
2017-07-14T03:39:17.442Z,25
2017-07-14T03:39:58.315Z,30
2017-07-14T03:40:39.194Z,30
2017-07-14T03:41:20.081Z,35
2017-07-14T03:42:00.978Z,35
2017-07-14T03:42:41.864Z,35
2017-07-14T03:43:22.750Z,35
2017-07-14T03:44:03.650Z,40
2017-07-14T03:44:44.525Z,40
2017-07-14T03:45:25.406Z,40
2017-07-14T03:46:06.307Z,40
2017-07-14T03:46:47.171Z,40
2017-07-14T03:47:28.041Z,40
2017-07-14T03:48:08.988Z,40
2017-07-14T03:48:49.876Z,40
2017-07-14T03:49:30.775Z,40
2017-07-14T03:50:11.667Z,40
2017-07-14T03:50:52.544Z,40
2017-07-14T03:51:33.423Z,40
2017-07-14T03:52:14.324Z,40
2017-07-14T03:52:55.209Z,45
2017-07-14T03:53:36.114Z,45
2017-07-14T03:54:17.006Z,45
2017-07-14T03:54:57.887Z,45
2017-07-14T03:55:38.773Z,50
2017-07-14T03:56:19.681Z,50
2017-07-14T03:57:00.543Z,50
2017-07-14T03:57:41.430Z,50
2017-07-14T03:58:22.356Z,50
2017-07-14T03:59:03.242Z,50
2017-07-14T03:59:44.121Z,55
2017-07-14T04:00:25.019Z,55
2017-07-14T04:01:05.907Z,55
2017-07-14T04:01:46.805Z,60
2017-07-14T04:02:27.695Z,60
2017-07-14T04:03:08.580Z,60
2017-07-14T04:03:49.455Z,60
2017-07-14T04:04:30.361Z,60
2017-07-14T04:05:11.226Z,65
2017-07-14T04:05:52.122Z,65
2017-07-14T04:06:33.008Z,65
2017-07-14T04:07:13.909Z,65
2017-07-14T04:07:54.790Z,65
2017-07-14T04:08:35.675Z,65
2017-07-14T04:09:16.569Z,65
2017-07-14T04:09:57.466Z,65
2017-07-14T04:10:38.366Z,65
2017-07-14T04:11:19.251Z,65
2017-07-14T04:12:00.153Z,65
2017-07-14T04:12:41.041Z,70
2017-07-14T04:13:21.930Z,70
2017-07-14T04:14:02.813Z,70
2017-07-14T04:14:43.695Z,75
2017-07-14T04:15:24.596Z,75
2017-07-14T04:16:05.481Z,80
2017-07-14T04:16:46.375Z,80
2017-07-14T04:17:27.271Z,85
2017-07-14T04:18:08.175Z,85
2017-07-14T04:18:49.068Z,85
2017-07-14T04:19:29.966Z,85
2017-07-14T04:20:10.871Z,85
2017-07-14T04:20:51.761Z,90
2017-07-14T04:21:32.678Z,90
2017-07-14T04:22:13.557Z,95
2017-07-14T04:22:54.467Z,95
2017-07-14T04:23:35.344Z,100
2017-07-14T04:24:16.233Z,105
2017-07-14T04:24:57.126Z,105
2017-07-14T04:25:38.014Z,110
2017-07-14T04:26:18.900Z,110
2017-07-14T04:26:59.799Z,115
2017-07-14T04:27:40.693Z,120
2017-07-14T04:28:21.587Z,120
2017-07-14T04:29:02.489Z,125
2017-07-14T04:29:43.378Z,130
2017-07-14T04:30:24.256Z,135
2017-07-14T04:31:05.146Z,140
2017-07-14T04:31:46.037Z,150
2017-07-14T04:32:26.932Z,155
2017-07-14T04:33:07.825Z,155
2017-07-14T04:33:48.720Z,160
2017-07-14T04:34:29.613Z,165
2017-07-14T04:35:10.503Z,165
2017-07-14T04:35:51.402Z,165
2017-07-14T04:36:32.288Z,165
2017-07-14T04:37:13.174Z,165
2017-07-14T04:37:54.062Z,165
2017-07-14T04:38:34.947Z,165
2017-07-14T04:39:15.836Z,160
2017-07-14T04:39:56.729Z,160
2017-07-14T04:40:37.619Z,160
2017-07-14T04:41:18.507Z,160
2017-07-14T04:41:59.664Z,160
2017-07-14T04:42:40.339Z,165
2017-07-14T04:43:21.370Z,170
2017-07-14T04:44:02.293Z,170
2017-07-14T04:44:43.238Z,175
2017-07-14T04:46:57.560Z,190
2017-07-14T04:49:06.719Z,205
2017-07-14T04:51:05.622Z,205
2017-07-14T04:51:46.575Z,205
2017-07-14T04:52:27.569Z,205
2017-07-14T04:53:08.596Z,200
2017-07-14T04:53:49.567Z,205
2017-07-14T04:57:26.892Z,195
2017-07-14T04:58:07.781Z,195
2017-07-14T04:58:48.688Z,195
2017-07-14T04:59:29.559Z,195
2017-07-14T05:00:10.452Z,195
2017-07-14T05:00:51.342Z,195
2017-07-14T05:03:01.357Z,195
2017-07-14T05:03:42.246Z,195
2017-07-14T05:04:23.129Z,200
2017-07-14T05:05:04.012Z,195
2017-07-14T05:05:44.901Z,195
2017-07-14T05:06:25.785Z,195
2017-07-14T05:07:06.656Z,195
2017-07-14T05:07:47.535Z,195
2017-07-14T05:08:28.427Z,200
2017-07-14T05:09:09.322Z,200
2017-07-14T05:09:50.200Z,200
2017-07-14T05:10:31.111Z,200
2017-07-14T05:11:11.994Z,205
2017-07-14T05:11:52.879Z,200
2017-07-14T05:12:33.811Z,200
2017-07-14T05:13:14.694Z,200
2017-07-14T05:13:55.589Z,200
2017-07-14T05:14:36.459Z,200
2017-07-14T05:15:17.331Z,200
2017-07-14T05:15:58.217Z,200
2017-07-14T05:16:39.118Z,200
2017-07-14T05:17:20.002Z,200
2017-07-14T05:18:00.940Z,200
2017-07-14T05:18:41.822Z,200
2017-07-14T05:19:22.738Z,200
2017-07-14T05:20:03.645Z,200
2017-07-14T05:20:44.536Z,195
2017-07-14T05:21:25.422Z,195
2017-07-14T05:22:06.291Z,195
2017-07-14T05:24:06.046Z,185
2017-07-14T05:24:46.931Z,185
2017-07-14T05:26:58.592Z,180
2017-07-14T05:27:39.505Z,180
2017-07-14T05:28:20.405Z,180
2017-07-14T05:29:01.292Z,180
2017-07-14T05:29:42.191Z,180
2017-07-14T05:30:23.080Z,180
2017-07-14T05:32:16.725Z,180
2017-07-14T05:32:57.614Z,185
2017-07-14T05:33:38.504Z,185
2017-07-14T05:34:19.396Z,190
2017-07-14T05:35:00.284Z,195
2017-07-14T05:35:41.174Z,200
2017-07-14T05:36:22.063Z,210
2017-07-14T05:37:02.978Z,215
2017-07-14T05:37:43.875Z,220
2017-07-14T05:38:24.810Z,225
2017-07-14T05:39:05.662Z,225
2017-07-14T05:39:46.558Z,230
2017-07-14T05:40:27.457Z,235
2017-07-14T05:41:08.392Z,240
2017-07-14T05:41:49.287Z,245
2017-07-14T05:42:30.174Z,250
2017-07-14T05:43:11.066Z,255
2017-07-14T05:43:51.950Z,260
2017-07-14T05:44:32.849Z,265
2017-07-14T05:45:13.742Z,270
2017-07-14T05:45:54.642Z,270
2017-07-14T05:46:35.517Z,275
2017-07-14T05:47:16.408Z,275
2017-07-14T05:47:57.302Z,275
2017-07-14T05:48:38.188Z,275
2017-07-14T05:49:19.096Z,275
2017-07-14T05:49:59.972Z,275
2017-07-14T05:50:40.862Z,270
2017-07-14T05:51:21.746Z,270
2017-07-14T05:52:02.642Z,265
2017-07-14T05:52:43.520Z,265
2017-07-14T05:53:24.412Z,265
2017-07-14T05:54:05.800Z,265
2017-07-14T05:54:46.719Z,265
2017-07-14T05:55:27.611Z,265
2017-07-14T05:56:08.884Z,265
2017-07-14T05:56:49.771Z,265
2017-07-14T05:57:30.658Z,265
2017-07-14T05:58:11.547Z,260
2017-07-14T05:58:52.450Z,260
2017-07-14T05:59:33.339Z,260
2017-07-14T06:00:14.232Z,260
2017-07-14T06:00:55.126Z,260
2017-07-14T06:01:36.022Z,260
2017-07-14T06:02:16.931Z,265
2017-07-14T06:02:57.808Z,270
2017-07-14T06:03:38.700Z,280
2017-07-14T06:04:19.586Z,285
2017-07-14T06:05:00.481Z,290
2017-07-14T06:05:41.370Z,290
2017-07-14T06:06:22.260Z,300
2017-07-14T06:07:03.163Z,300
2017-07-14T06:07:44.121Z,305
2017-07-14T06:08:25.004Z,310
2017-07-14T06:09:05.899Z,315
2017-07-14T06:09:46.796Z,320
2017-07-14T06:10:27.685Z,320
2017-07-14T06:11:08.573Z,325
2017-07-14T06:11:49.496Z,330
2017-07-14T06:12:30.355Z,340
2017-07-14T06:13:11.268Z,350
2017-07-14T06:13:52.184Z,350
2017-07-14T06:14:33.084Z,370
2017-07-14T06:15:13.973Z,370
2017-07-14T06:15:54.868Z,340
2017-07-14T06:16:35.756Z,325
2017-07-14T06:17:16.679Z,325
2017-07-14T06:17:57.540Z,325
2017-07-14T06:18:38.450Z,325
2017-07-14T06:19:19.343Z,340
2017-07-14T06:20:00.239Z,320
2017-07-14T06:20:41.223Z,320
2017-07-14T06:21:22.123Z,335
2017-07-14T06:22:03.008Z,325
2017-07-14T06:22:43.905Z,315
2017-07-14T06:23:24.834Z,320
2017-07-14T06:24:05.733Z,325
2017-07-14T06:24:46.618Z,340
2017-07-14T06:25:27.535Z,350
2017-07-14T06:26:08.440Z,340
2017-07-14T06:26:49.321Z,345
2017-07-14T06:27:30.218Z,340
2017-07-14T06:28:11.115Z,345
2017-07-14T06:28:52.002Z,350
2017-07-14T06:29:32.889Z,355
2017-07-14T06:30:13.771Z,355
2017-07-14T06:30:54.656Z,360
2017-07-14T06:31:35.553Z,355
2017-07-14T06:32:16.440Z,370
2017-07-14T06:32:57.327Z,370
2017-07-14T06:33:38.214Z,370
2017-07-14T06:34:19.100Z,365
2017-07-14T06:34:59.996Z,385
2017-07-14T06:35:40.891Z,405
2017-07-14T06:36:21.792Z,380
2017-07-14T06:37:02.680Z,360
2017-07-14T06:37:43.577Z,390
2017-07-14T06:38:24.519Z,420
2017-07-14T06:39:05.408Z,495
2017-07-14T06:39:46.306Z,585
2017-07-14T06:40:27.197Z,660
2017-07-14T06:41:08.101Z,560
2017-07-14T06:41:49.005Z,530
2017-07-14T06:42:29.870Z,475
2017-07-14T06:43:10.769Z,435
2017-07-14T06:43:51.661Z,550
2017-07-14T06:44:32.610Z,725
2017-07-14T06:46:26.229Z,945
2017-07-14T06:47:07.122Z,885
2017-07-14T06:47:48.057Z,1025
2017-07-14T06:48:28.969Z,1425
2017-07-14T06:49:09.859Z,1505
2017-07-14T06:49:50.756Z,1215
2017-07-14T06:50:31.663Z,1525
2017-07-14T06:51:12.574Z,1440
2017-07-14T06:51:53.461Z,1510
2017-07-14T06:52:34.345Z,1415
2017-07-14T06:53:15.242Z,890
2017-07-14T06:53:56.170Z,1095
2017-07-14T06:54:37.070Z,960
2017-07-14T06:55:17.972Z,935
2017-07-14T06:55:58.865Z,800
2017-07-14T06:56:39.765Z,705
2017-07-14T06:57:20.665Z,745
2017-07-14T06:58:01.560Z,865
2017-07-14T06:58:42.455Z,1295
2017-07-14T06:59:23.344Z,1645
2017-07-14T07:00:04.254Z,1695
2017-07-14T07:00:45.148Z,1965
2017-07-14T07:01:26.070Z,2055
2017-07-14T07:02:06.935Z,2005
2017-07-14T07:02:47.835Z,1665
2017-07-14T07:03:28.712Z,1650
2017-07-14T07:04:09.612Z,2000
2017-07-14T07:04:50.507Z,2040
2017-07-14T07:05:31.400Z,1680
2017-07-14T07:06:12.293Z,2275
2017-07-14T07:06:53.200Z,2265
2017-07-14T07:07:34.091Z,2055
2017-07-14T07:08:14.988Z,2065
2017-07-14T07:08:55.884Z,2015
2017-07-14T07:09:36.784Z,1980
2017-07-14T07:10:17.682Z,1975
2017-07-14T07:10:58.569Z,2040
2017-07-14T07:11:39.460Z,2030
2017-07-14T07:12:20.358Z,1995
2017-07-14T07:13:01.245Z,1995
2017-07-14T07:13:42.145Z,1970
2017-07-14T07:14:23.040Z,1950
2017-07-14T07:15:03.937Z,1960
2017-07-14T07:15:44.834Z,1990
2017-07-14T07:16:25.731Z,2060
2017-07-14T07:17:06.634Z,2100
2017-07-14T07:17:47.531Z,2025
2017-07-14T07:18:28.438Z,2010
2017-07-14T07:19:09.337Z,1975
2017-07-14T07:19:50.233Z,1950
2017-07-14T07:20:31.129Z,1940
2017-07-14T07:21:12.047Z,1915
2017-07-14T07:21:52.986Z,1910
2017-07-14T07:22:33.890Z,1910
2017-07-14T07:23:14.823Z,1930
2017-07-14T07:23:55.729Z,1775
2017-07-14T07:24:36.643Z,1705
2017-07-14T07:25:17.530Z,1625
2017-07-14T07:25:58.438Z,1660
2017-07-14T07:26:39.351Z,1820
2017-07-14T07:27:20.305Z,1925
2017-07-14T07:28:01.129Z,2050
2017-07-14T07:28:42.020Z,2085
2017-07-14T07:29:22.937Z,2150
2017-07-14T07:31:42.590Z,2145
2017-07-14T07:32:23.520Z,1355
2017-07-14T07:33:04.423Z,1815
2017-07-14T07:33:45.322Z,1390
2017-07-14T07:34:26.241Z,1280
2017-07-14T07:35:07.144Z,1975
2017-07-14T07:35:48.052Z,2385
2017-07-14T07:36:28.952Z,2445
2017-07-14T07:37:09.822Z,2475
2017-07-14T07:37:50.710Z,2580
2017-07-14T07:38:31.625Z,2580
2017-07-14T07:39:12.527Z,2585
2017-07-14T07:39:53.429Z,2515
2017-07-14T07:40:34.324Z,2085
2017-07-14T07:41:15.234Z,2260
2017-07-14T07:41:56.158Z,2215
2017-07-14T07:42:37.072Z,1500
2017-07-14T07:43:17.979Z,1040
2017-07-14T07:43:58.889Z,755
2017-07-14T07:44:39.799Z,760
2017-07-14T07:45:20.711Z,1185
2017-07-14T07:46:01.595Z,1710
2017-07-14T07:46:42.506Z,1815
2017-07-14T07:47:23.405Z,1775
2017-07-14T07:48:04.318Z,2210
2017-07-14T07:48:45.211Z,895
2017-07-14T07:49:26.096Z,810
2017-07-14T07:50:07.007Z,750
2017-07-14T07:52:05.980Z,980
2017-07-14T07:52:46.891Z,2300
2017-07-14T07:53:27.805Z,2300
2017-07-14T07:54:08.701Z,2370
2017-07-14T07:54:49.594Z,2105
2017-07-14T07:55:30.500Z,1635
2017-07-14T07:56:11.413Z,1135
2017-07-14T07:56:52.318Z,885
2017-07-14T07:57:33.206Z,800
2017-07-14T07:58:14.112Z,760
2017-07-14T07:58:55.019Z,750
2017-07-14T07:59:35.928Z,750
2017-07-14T08:00:16.833Z,745
2017-07-14T08:00:57.720Z,750
2017-07-14T08:01:38.634Z,755
2017-07-14T08:02:19.534Z,760
2017-07-14T08:03:00.442Z,780
2017-07-14T08:03:41.356Z,805
2017-07-14T08:04:22.260Z,815
2017-07-14T08:05:03.168Z,830
2017-07-14T08:05:44.066Z,850
2017-07-14T08:06:24.967Z,830
2017-07-14T08:07:05.856Z,785
2017-07-14T08:07:46.753Z,850
2017-07-14T08:08:27.658Z,840
2017-07-14T08:09:08.600Z,845
2017-07-14T08:09:49.498Z,710
2017-07-14T08:10:30.406Z,685
2017-07-14T08:11:11.315Z,720
2017-07-14T08:11:52.220Z,740
2017-07-14T08:12:33.140Z,735
2017-07-14T08:13:14.036Z,735
2017-07-14T08:13:54.981Z,750
2017-07-14T08:14:35.889Z,870
2017-07-14T08:15:16.786Z,950
2017-07-14T08:15:57.700Z,900
2017-07-14T08:16:38.587Z,890
2017-07-14T08:17:19.492Z,935
2017-07-14T08:18:00.392Z,1125
2017-07-14T08:18:41.291Z,1435
2017-07-14T08:19:22.187Z,1315
2017-07-14T08:20:03.098Z,1290
2017-07-14T08:20:44.003Z,1265
2017-07-14T08:21:24.890Z,1500
2017-07-14T08:22:05.796Z,2120
2017-07-14T08:22:46.697Z,2565
2017-07-14T08:23:27.594Z,2780
2017-07-14T08:24:08.508Z,2890
2017-07-14T08:24:49.417Z,2740
2017-07-14T08:25:30.322Z,665
2017-07-14T08:26:11.230Z,580
2017-07-14T08:26:52.132Z,900
2017-07-14T08:27:33.036Z,570
2017-07-14T08:28:13.948Z,530
2017-07-14T08:28:54.851Z,1255
2017-07-14T08:29:35.783Z,500
2017-07-14T08:30:16.690Z,385
2017-07-14T08:30:57.581Z,345
2017-07-14T08:31:38.501Z,325
2017-07-14T08:32:19.407Z,320
2017-07-14T08:33:00.314Z,320
2017-07-14T08:33:41.255Z,325
2017-07-14T08:34:22.157Z,335
2017-07-14T08:35:03.066Z,345
2017-07-14T08:35:44.012Z,355
2017-07-14T08:36:24.888Z,360
2017-07-14T08:37:05.798Z,370
2017-07-14T08:37:46.694Z,370
2017-07-14T08:38:27.601Z,370
2017-07-14T08:39:08.503Z,375
2017-07-14T08:39:49.416Z,380
2017-07-14T08:40:30.314Z,380
2017-07-14T08:41:11.225Z,385
2017-07-14T08:41:52.132Z,390
2017-07-14T08:42:33.025Z,390
2017-07-14T08:43:13.924Z,395
2017-07-14T08:43:54.816Z,425
2017-07-14T08:44:35.719Z,440
2017-07-14T08:45:16.605Z,435
2017-07-14T08:45:57.478Z,435
2017-07-14T08:46:38.367Z,465
2017-07-14T08:47:19.258Z,515
2017-07-14T08:48:00.145Z,545
2017-07-14T08:48:41.037Z,800
2017-07-14T08:49:21.954Z,1295
2017-07-14T08:50:02.843Z,1075
2017-07-14T08:50:43.735Z,2080
2017-07-14T08:51:24.641Z,1590
2017-07-14T08:52:05.536Z,2115
2017-07-14T08:52:46.448Z,1800
2017-07-14T08:53:27.372Z,2025
2017-07-14T08:54:08.274Z,2435
2017-07-14T08:54:49.172Z,1845
2017-07-14T08:55:30.079Z,1605
2017-07-14T08:56:10.981Z,880
2017-07-14T08:56:51.881Z,630
2017-07-14T08:57:32.785Z,475
2017-07-14T08:58:13.686Z,375
2017-07-14T08:58:54.581Z,315
2017-07-14T08:59:35.489Z,285
2017-07-14T09:00:16.388Z,270
2017-07-14T09:00:57.808Z,260
2017-07-14T09:01:38.710Z,255
2017-07-14T09:02:19.609Z,240
2017-07-14T09:03:00.507Z,230
2017-07-14T09:03:41.410Z,215
2017-07-14T09:04:22.312Z,205
2017-07-14T09:05:03.188Z,200
2017-07-14T09:05:44.097Z,190
2017-07-14T09:06:24.998Z,185
2017-07-14T09:07:05.895Z,185
2017-07-14T09:07:46.787Z,185
2017-07-14T09:08:27.686Z,185
2017-07-14T09:09:08.577Z,190
2017-07-14T09:09:49.474Z,190
2017-07-14T09:10:30.379Z,195
2017-07-14T09:11:11.269Z,195
2017-07-14T09:11:52.170Z,195
2017-07-14T09:12:33.065Z,200
2017-07-14T09:13:13.955Z,200
2017-07-14T09:13:54.850Z,210
2017-07-14T09:14:35.747Z,215
2017-07-14T09:15:16.642Z,225
2017-07-14T09:15:57.548Z,225
2017-07-14T09:16:38.437Z,235
2017-07-14T09:17:19.345Z,245
2017-07-14T09:18:00.247Z,260
2017-07-14T09:18:41.142Z,270
2017-07-14T09:19:22.044Z,280
2017-07-14T09:20:02.948Z,290
2017-07-14T09:20:43.856Z,290
2017-07-14T09:21:24.751Z,300
2017-07-14T09:22:05.654Z,310
2017-07-14T09:22:46.545Z,325
2017-07-14T09:23:27.441Z,345
2017-07-14T09:24:08.334Z,370
2017-07-14T09:24:49.235Z,400
2017-07-14T09:25:30.125Z,420
2017-07-14T09:26:11.009Z,425
2017-07-14T09:26:51.915Z,435
2017-07-14T09:27:32.807Z,445
2017-07-14T09:28:13.704Z,460
2017-07-14T09:28:54.691Z,470
2017-07-14T09:29:35.554Z,485
2017-07-14T09:30:16.454Z,500
2017-07-14T09:30:57.344Z,520
2017-07-14T09:31:38.240Z,535
2017-07-14T09:32:19.186Z,555
2017-07-14T09:33:00.105Z,570
2017-07-14T09:33:40.957Z,590
2017-07-14T09:34:21.849Z,610
2017-07-14T09:35:02.744Z,640
2017-07-14T09:35:43.629Z,685
2017-07-14T09:36:24.492Z,765
2017-07-14T09:37:05.379Z,825
2017-07-14T09:37:46.263Z,995
2017-07-14T09:38:27.161Z,2380
2017-07-14T09:39:08.044Z,1720
2017-07-14T09:39:48.940Z,2415
2017-07-14T09:40:29.833Z,2735
2017-07-14T09:41:10.691Z,2485
2017-07-14T09:41:51.594Z,2510
2017-07-14T09:42:32.466Z,1130
2017-07-14T09:43:13.395Z,820
2017-07-14T09:43:54.265Z,750
2017-07-14T09:44:35.166Z,710
2017-07-14T09:45:16.053Z,670
2017-07-14T09:45:56.924Z,630
2017-07-14T09:46:37.803Z,595
2017-07-14T09:47:18.755Z,575
2017-07-14T09:47:59.585Z,575
2017-07-14T09:48:40.474Z,585
2017-07-14T09:49:21.379Z,650
2017-07-14T09:50:02.269Z,665
2017-07-14T09:50:43.167Z,2020
2017-07-14T09:51:24.054Z,600
2017-07-14T09:52:04.975Z,570
2017-07-14T09:52:45.881Z,560
2017-07-14T09:53:26.772Z,555
2017-07-14T09:54:07.675Z,555
2017-07-14T09:54:48.594Z,555